sensor_id;sensor_type;location;lat;lon;timestamp;pressure;altitude;pressure_sealevel;temperature;humidity
30463;BME280;17256;43.618;25.336;2023-02-26T00:01:28;99036.72;;;9.88;100.00
30463;BME280;17256;43.618;25.336;2023-02-26T00:04:04;99363.94;;;11.82;100.00
30463;BME280;17256;43.618;25.336;2023-02-26T00:06:36;99312.56;;;11.64;100.00
30463;BME280;17256;43.618;25.336;2023-02-26T00:09:05;99308.06;;;11.69;100.00
30463;BME280;17256;43.618;25.336;2023-02-26T00:11:31;98994.13;;;9.74;100.00
30463;BME280;17256;43.618;25.336;2023-02-26T00:14:00;99203.38;;;10.94;100.00
30463;BME280;17256;43.618;25.336;2023-02-26T00:16:32;99037.84;;;10.10;100.00
30463;BME280;17256;43.618;25.336;2023-02-26T00:19:01;99186.41;;;10.86;100.00
30463;BME280;17256;43.618;25.336;2023-02-26T00:21:28;99444.13;;;12.44;100.00
30463;BME280;17256;43.618;25.336;2023-02-26T00:23:55;99271.94;;;11.54;100.00
30463;BME280;17256;43.618;25.336;2023-02-26T00:26:22;99060.84;;;10.28;100.00
30463;BME280;17256;43.618;25.336;2023-02-26T00:28:52;99185.84;;;11.07;100.00
30463;BME280;17256;43.618;25.336;2023-02-26T00:31:19;99253.88;;;11.47;100.00
30463;BME280;17256;43.618;25.336;2023-02-26T00:33:51;99031.28;;;10.00;100.00
30463;BME280;17256;43.618;25.336;2023-02-26T00:36:45;99421.75;;;12.52;100.00
30463;BME280;17256;43.618;25.336;2023-02-26T00:39:40;99437.56;;;12.45;100.00
30463;BME280;17256;43.618;25.336;2023-02-26T00:42:12;99045.84;;;10.12;100.00
30463;BME280;17256;43.618;25.336;2023-02-26T00:44:41;99178.06;;;10.92;100.00
30463;BME280;17256;43.618;25.336;2023-02-26T00:47:29;99067.78;;;10.12;100.00
30463;BME280;17256;43.618;25.336;2023-02-26T00:50:19;99386.19;;;12.04;100.00
30463;BME280;17256;43.618;25.336;2023-02-26T00:53:11;99425.69;;;12.32;100.00
30463;BME280;17256;43.618;25.336;2023-02-26T00:55:40;99033.50;;;9.61;100.00
30463;BME280;17256;43.618;25.336;2023-02-26T00:58:08;99171.53;;;10.63;100.00
30463;BME280;17256;43.618;25.336;2023-02-26T01:00:35;99149.75;;;10.38;100.00
30463;BME280;17256;43.618;25.336;2023-02-26T01:03:01;99217.47;;;10.98;100.00
30463;BME280;17256;43.618;25.336;2023-02-26T01:05:28;99434.06;;;12.26;100.00
30463;BME280;17256;43.618;25.336;2023-02-26T01:08:07;99261.84;;;11.25;100.00
30463;BME280;17256;43.618;25.336;2023-02-26T01:10:42;99354.44;;;11.78;100.00
30463;BME280;17256;43.618;25.336;2023-02-26T01:13:10;99177.44;;;10.90;100.00
30463;BME280;17256;43.618;25.336;2023-02-26T01:15:43;99004.63;;;9.77;100.00
30463;BME280;17256;43.618;25.336;2023-02-26T01:18:45;99224.19;;;11.14;100.00
30463;BME280;17256;43.618;25.336;2023-02-26T01:21:18;99021.38;;;9.99;100.00
30463;BME280;17256;43.618;25.336;2023-02-26T01:23:50;99266.91;;;11.51;100.00
30463;BME280;17256;43.618;25.336;2023-02-26T01:26:23;99191.06;;;10.85;100.00
30463;BME280;17256;43.618;25.336;2023-02-26T01:28:51;99181.66;;;10.93;100.00
30463;BME280;17256;43.618;25.336;2023-02-26T01:31:38;99022.09;;;10.06;100.00
30463;BME280;17256;43.618;25.336;2023-02-26T01:34:33;98971.50;;;9.90;100.00
30463;BME280;17256;43.618;25.336;2023-02-26T01:43:06;98952.13;;;10.85;88.21
30463;BME280;17256;43.618;25.336;2023-02-26T01:45:40;98961.66;;;11.18;84.03
30463;BME280;17256;43.618;25.336;2023-02-26T01:48:47;99114.59;;;12.44;80.29
30463;BME280;17256;43.618;25.336;2023-02-26T01:51:48;99348.34;;;13.88;80.32
30463;BME280;17256;43.618;25.336;2023-02-26T01:54:33;99313.53;;;13.87;78.58
30463;BME280;17256;43.618;25.336;2023-02-26T01:59:32;99120.63;;;12.75;76.15
30463;BME280;17256;43.618;25.336;2023-02-26T02:02:03;99305.84;;;14.06;75.58
30463;BME280;17256;43.618;25.336;2023-02-26T02:04:31;99165.16;;;13.17;73.24
30463;BME280;17256;43.618;25.336;2023-02-26T02:07:00;99127.56;;;12.77;73.87
30463;BME280;17256;43.618;25.336;2023-02-26T02:09:26;98917.88;;;11.56;73.06
30463;BME280;17256;43.618;25.336;2023-02-26T02:31:30;99152.25;;;13.56;66.14
30463;BME280;17256;43.618;25.336;2023-02-26T02:39:28;99059.91;;;12.86;66.48
30463;BME280;17256;43.618;25.336;2023-02-26T02:42:25;99142.75;;;13.30;66.59
30463;BME280;17256;43.618;25.336;2023-02-26T02:44:58;99132.16;;;13.22;66.65
30463;BME280;17256;43.618;25.336;2023-02-26T02:47:30;99010.72;;;12.40;67.04
30463;BME280;17256;43.618;25.336;2023-02-26T02:50:30;99145.00;;;13.00;67.54
30463;BME280;17256;43.618;25.336;2023-02-26T02:53:11;99401.78;;;14.49;68.26
30463;BME280;17256;43.618;25.336;2023-02-26T02:55:56;99165.13;;;13.00;68.69
30463;BME280;17256;43.618;25.336;2023-02-26T02:58:35;99265.50;;;13.49;69.52
30463;BME280;17256;43.618;25.336;2023-02-26T03:01:05;99307.28;;;13.75;69.84
30463;BME280;17256;43.618;25.336;2023-02-26T03:03:58;99402.44;;;14.23;70.73
30463;BME280;17256;43.618;25.336;2023-02-26T03:06:30;98997.69;;;11.61;70.99
30463;BME280;17256;43.618;25.336;2023-02-26T03:09:00;99006.53;;;11.63;71.82
30463;BME280;17256;43.618;25.336;2023-02-26T03:11:31;99009.88;;;11.65;72.26
30463;BME280;17256;43.618;25.336;2023-02-26T03:14:03;99402.44;;;14.06;72.66
30463;BME280;17256;43.618;25.336;2023-02-26T03:17:08;98969.09;;;11.34;72.19
30463;BME280;17256;43.618;25.336;2023-02-26T03:19:55;99402.63;;;13.99;73.11
30463;BME280;17256;43.618;25.336;2023-02-26T03:22:50;99163.78;;;12.69;72.21
30463;BME280;17256;43.618;25.336;2023-02-26T03:30:47;99281.81;;;13.51;70.56
30463;BME280;17256;43.618;25.336;2023-02-26T03:39:19;99165.38;;;12.99;68.31
30463;BME280;17256;43.618;25.336;2023-02-26T03:44:38;99406.44;;;14.65;67.59
30463;BME280;17256;43.618;25.336;2023-02-26T03:47:12;99012.88;;;12.21;67.24
30463;BME280;17256;43.618;25.336;2023-02-26T03:50:08;99325.78;;;14.30;66.64
30463;BME280;17256;43.618;25.336;2023-02-26T03:52:47;99245.63;;;13.86;66.82
30463;BME280;17256;43.618;25.336;2023-02-26T03:55:44;99212.16;;;13.61;66.64
30463;BME280;17256;43.618;25.336;2023-02-26T03:58:49;99368.84;;;14.64;66.17
30463;BME280;17256;43.618;25.336;2023-02-26T04:02:14;99126.56;;;13.17;66.30
30463;BME280;17256;43.618;25.336;2023-02-26T04:04:54;99191.94;;;13.55;66.39
30463;BME280;17256;43.618;25.336;2023-02-26T04:07:24;99181.19;;;13.37;66.60
30463;BME280;17256;43.618;25.336;2023-02-26T04:09:52;99333.22;;;14.29;66.56
30463;BME280;17256;43.618;25.336;2023-02-26T04:12:28;99004.72;;;12.43;65.51
30463;BME280;17256;43.618;25.336;2023-02-26T04:14:56;99210.59;;;13.65;65.42
30463;BME280;17256;43.618;25.336;2023-02-26T04:17:26;98975.69;;;12.18;65.10
30463;BME280;17256;43.618;25.336;2023-02-26T04:19:54;99237.16;;;13.71;64.95
30463;BME280;17256;43.618;25.336;2023-02-26T04:22:22;99262.69;;;14.00;64.24
30463;BME280;17256;43.618;25.336;2023-02-26T04:24:48;99231.78;;;13.81;64.21
30463;BME280;17256;43.618;25.336;2023-02-26T04:27:18;99315.81;;;14.29;63.98
30463;BME280;17256;43.618;25.336;2023-02-26T04:29:46;99045.34;;;12.52;63.58
30463;BME280;17256;43.618;25.336;2023-02-26T04:32:15;99218.63;;;13.66;63.33
30463;BME280;17256;43.618;25.336;2023-02-26T04:34:43;99254.28;;;13.90;63.07
30463;BME280;17256;43.618;25.336;2023-02-26T04:37:22;99361.25;;;14.55;63.03
30463;BME280;17256;43.618;25.336;2023-02-26T04:39:50;99022.72;;;12.50;62.98
30463;BME280;17256;43.618;25.336;2023-02-26T04:42:26;98968.41;;;12.29;62.30
30463;BME280;17256;43.618;25.336;2023-02-26T04:44:55;99385.16;;;14.66;62.33
30463;BME280;17256;43.618;25.336;2023-02-26T04:47:24;99085.22;;;12.83;62.28
30463;BME280;17256;43.618;25.336;2023-02-26T04:49:53;99323.09;;;14.35;62.27
30463;BME280;17256;43.618;25.336;2023-02-26T04:52:19;99282.06;;;14.05;61.44
30463;BME280;17256;43.618;25.336;2023-02-26T04:54:50;99343.06;;;14.59;61.28
30463;BME280;17256;43.618;25.336;2023-02-26T04:57:18;99047.59;;;12.72;61.16
30463;BME280;17256;43.618;25.336;2023-02-26T04:59:45;99304.19;;;14.27;61.10
30463;BME280;17256;43.618;25.336;2023-02-26T05:02:13;99377.53;;;14.73;61.10
30463;BME280;17256;43.618;25.336;2023-02-26T05:04:51;99194.09;;;13.70;60.93
30463;BME280;17256;43.618;25.336;2023-02-26T05:07:28;99005.63;;;12.48;60.54
30463;BME280;17256;43.618;25.336;2023-02-26T05:09:54;99104.75;;;12.99;61.39
30463;BME280;17256;43.618;25.336;2023-02-26T05:12:28;99326.69;;;14.35;60.99
30463;BME280;17256;43.618;25.336;2023-02-26T05:15:00;99177.66;;;13.58;60.75
30463;BME280;17256;43.618;25.336;2023-02-26T05:17:27;99092.66;;;13.16;61.07
30463;BME280;17256;43.618;25.336;2023-02-26T05:19:54;99241.63;;;13.94;61.14
30463;BME280;17256;43.618;25.336;2023-02-26T05:22:24;99040.81;;;12.63;61.20
30463;BME280;17256;43.618;25.336;2023-02-26T05:24:55;99334.38;;;14.50;61.69
30463;BME280;17256;43.618;25.336;2023-02-26T05:27:23;99407.72;;;15.01;61.69
30463;BME280;17256;43.618;25.336;2023-02-26T05:29:53;99032.91;;;12.67;61.57
30463;BME280;17256;43.618;25.336;2023-02-26T05:32:31;99380.97;;;14.85;61.46
30463;BME280;17256;43.618;25.336;2023-02-26T05:35:01;99268.81;;;14.24;61.09
30463;BME280;17256;43.618;25.336;2023-02-26T05:37:27;99263.03;;;14.25;61.00
30463;BME280;17256;43.618;25.336;2023-02-26T05:39:54;99316.41;;;14.69;60.89
30463;BME280;17256;43.618;25.336;2023-02-26T05:42:22;99030.38;;;12.99;60.87
30463;BME280;17256;43.618;25.336;2023-02-26T05:44:50;99344.56;;;14.88;61.11
30463;BME280;17256;43.618;25.336;2023-02-26T05:47:17;99281.00;;;14.66;60.38
30463;BME280;17256;43.618;25.336;2023-02-26T05:49:53;99152.44;;;13.88;60.33
30463;BME280;17256;43.618;25.336;2023-02-26T05:52:19;99325.56;;;14.97;60.70
30463;BME280;17256;43.618;25.336;2023-02-26T05:55:11;99036.84;;;13.09;60.38
30463;BME280;17256;43.618;25.336;2023-02-26T05:57:39;99324.38;;;14.88;60.30
30463;BME280;17256;43.618;25.336;2023-02-26T06:00:08;99344.31;;;14.90;61.14
30463;BME280;17256;43.618;25.336;2023-02-26T06:02:43;99367.97;;;15.07;60.77
30463;BME280;17256;43.618;25.336;2023-02-26T06:05:11;99036.47;;;13.01;61.21
30463;BME280;17256;43.618;25.336;2023-02-26T06:07:38;99380.72;;;15.08;61.27
30463;BME280;17256;43.618;25.336;2023-02-26T06:10:06;99375.38;;;15.02;61.25
30463;BME280;17256;43.618;25.336;2023-02-26T06:12:34;99296.28;;;14.52;61.41
30463;BME280;17256;43.618;25.336;2023-02-26T06:15:01;99085.06;;;13.23;61.36
30463;BME280;17256;43.618;25.336;2023-02-26T06:17:29;99412.41;;;15.23;61.64
30463;BME280;17256;43.618;25.336;2023-02-26T06:19:56;99049.59;;;12.93;60.76
30463;BME280;17256;43.618;25.336;2023-02-26T06:22:22;99427.72;;;15.30;61.35
30463;BME280;17256;43.618;25.336;2023-02-26T06:24:48;99229.97;;;14.08;61.19
30463;BME280;17256;43.618;25.336;2023-02-26T06:27:14;99369.22;;;14.95;60.61
30463;BME280;17256;43.618;25.336;2023-02-26T06:29:41;99198.38;;;13.99;60.45
30463;BME280;17256;43.618;25.336;2023-02-26T06:32:15;99336.97;;;14.78;60.60
30463;BME280;17256;43.618;25.336;2023-02-26T06:34:44;99456.66;;;15.66;60.40
30463;BME280;17256;43.618;25.336;2023-02-26T06:37:12;99283.09;;;14.59;60.37
30463;BME280;17256;43.618;25.336;2023-02-26T06:39:42;99266.41;;;14.49;59.80
30463;BME280;17256;43.618;25.336;2023-02-26T06:42:14;99237.72;;;14.33;59.72
30463;BME280;17256;43.618;25.336;2023-02-26T06:44:44;99238.41;;;14.40;59.60
30463;BME280;17256;43.618;25.336;2023-02-26T06:47:15;99307.31;;;14.96;59.44
30463;BME280;17256;43.618;25.336;2023-02-26T06:49:45;99150.63;;;13.99;58.72
30463;BME280;17256;43.618;25.336;2023-02-26T06:52:14;99323.63;;;15.19;58.40
30463;BME280;17256;43.618;25.336;2023-02-26T06:54:41;99129.38;;;13.99;58.35
30463;BME280;17256;43.618;25.336;2023-02-26T06:57:08;99278.16;;;15.10;58.30
30463;BME280;17256;43.618;25.336;2023-02-26T06:59:37;99473.31;;;16.30;58.57
30463;BME280;17256;43.618;25.336;2023-02-26T07:02:20;99082.94;;;13.91;58.21
30463;BME280;17256;43.618;25.336;2023-02-26T07:04:51;99125.28;;;14.29;58.58
30463;BME280;17256;43.618;25.336;2023-02-26T07:07:19;99347.38;;;15.69;58.81
30463;BME280;17256;43.618;25.336;2023-02-26T07:09:46;99262.47;;;15.16;58.71
30463;BME280;17256;43.618;25.336;2023-02-26T07:12:14;99140.50;;;14.53;58.43
30463;BME280;17256;43.618;25.336;2023-02-26T07:14:44;99311.75;;;15.51;58.52
30463;BME280;17256;43.618;25.336;2023-02-26T07:17:13;99377.81;;;16.01;58.92
30463;BME280;17256;43.618;25.336;2023-02-26T07:19:49;99467.44;;;16.59;58.80
30463;BME280;17256;43.618;25.336;2023-02-26T07:22:19;99332.09;;;15.98;58.70
30463;BME280;17256;43.618;25.336;2023-02-26T07:24:48;99337.00;;;16.23;58.55
30463;BME280;17256;43.618;25.336;2023-02-26T07:27:16;99206.84;;;15.44;58.92
30463;BME280;17256;43.618;25.336;2023-02-26T07:29:48;99473.69;;;17.18;59.59
30463;BME280;17256;43.618;25.336;2023-02-26T07:32:42;99145.16;;;15.44;59.76
30463;BME280;17256;43.618;25.336;2023-02-26T07:35:10;99327.97;;;16.43;60.73
30463;BME280;17256;43.618;25.336;2023-02-26T07:37:39;99378.59;;;16.76;61.72
30463;BME280;17256;43.618;25.336;2023-02-26T07:40:24;99211.78;;;15.74;62.42
30463;BME280;17256;43.618;25.336;2023-02-26T07:43:12;99093.09;;;14.98;63.19
30463;BME280;17256;43.618;25.336;2023-02-26T07:45:38;99106.13;;;15.03;63.90
30463;BME280;17256;43.618;25.336;2023-02-26T07:48:07;99276.22;;;16.07;64.57
30463;BME280;17256;43.618;25.336;2023-02-26T07:50:42;99334.63;;;16.42;65.29
30463;BME280;17256;43.618;25.336;2023-02-26T07:53:11;99309.69;;;16.47;65.79
30463;BME280;17256;43.618;25.336;2023-02-26T07:55:50;99353.09;;;16.74;65.69
30463;BME280;17256;43.618;25.336;2023-02-26T07:58:25;99315.06;;;16.64;65.63
30463;BME280;17256;43.618;25.336;2023-02-26T08:00:53;99169.81;;;15.87;65.60
30463;BME280;17256;43.618;25.336;2023-02-26T08:03:21;99321.47;;;16.70;65.95
30463;BME280;17256;43.618;25.336;2023-02-26T08:05:47;99318.25;;;16.88;66.05
30463;BME280;17256;43.618;25.336;2023-02-26T08:08:15;99084.28;;;15.38;65.38
30463;BME280;17256;43.618;25.336;2023-02-26T08:10:45;99085.84;;;15.29;65.65
30463;BME280;17256;43.618;25.336;2023-02-26T08:13:16;99117.50;;;15.44;65.59
30463;BME280;17256;43.618;25.336;2023-02-26T08:16:02;99128.75;;;15.74;65.28
30463;BME280;17256;43.618;25.336;2023-02-26T08:18:38;99343.84;;;17.20;65.44
30463;BME280;17256;43.618;25.336;2023-02-26T08:21:06;99321.88;;;17.04;65.08
30463;BME280;17256;43.618;25.336;2023-02-26T08:23:54;99451.47;;;17.91;65.02
30463;BME280;17256;43.618;25.336;2023-02-26T08:29:40;99272.56;;;17.31;63.46
30463;BME280;17256;43.618;25.336;2023-02-26T08:37:16;99103.25;;;16.40;62.81
30463;BME280;17256;43.618;25.336;2023-02-26T08:44:50;99474.00;;;18.86;62.21
30463;BME280;17256;43.618;25.336;2023-02-26T08:47:17;99452.25;;;19.09;61.23
30463;BME280;17256;43.618;25.336;2023-02-26T08:50:05;99214.31;;;17.36;61.63
30463;BME280;17256;43.618;25.336;2023-02-26T08:52:57;99244.56;;;17.73;60.80
30463;BME280;17256;43.618;25.336;2023-02-26T08:58:11;99366.41;;;18.51;60.30
30463;BME280;17256;43.618;25.336;2023-02-26T09:01:41;99456.66;;;19.15;60.19
30463;BME280;17256;43.618;25.336;2023-02-26T09:04:17;99114.16;;;16.92;59.88
30463;BME280;17256;43.618;25.336;2023-02-26T09:06:54;99294.50;;;18.19;60.23
30463;BME280;17256;43.618;25.336;2023-02-26T09:09:26;99437.22;;;19.10;59.43
30463;BME280;17256;43.618;25.336;2023-02-26T09:20:32;99431.41;;;19.65;58.38
30463;BME280;17256;43.618;25.336;2023-02-26T09:23:00;99437.44;;;19.83;57.90
30463;BME280;17256;43.618;25.336;2023-02-26T09:25:42;99313.78;;;18.85;57.67
30463;BME280;17256;43.618;25.336;2023-02-26T09:28:13;99244.66;;;18.48;57.41
30463;BME280;17256;43.618;25.336;2023-02-26T09:30:55;99102.69;;;17.65;57.15
30463;BME280;17256;43.618;25.336;2023-02-26T09:33:43;99460.09;;;20.05;55.55
30463;BME280;17256;43.618;25.336;2023-02-26T09:40:44;99462.75;;;20.25;53.85
30463;BME280;17256;43.618;25.336;2023-02-26T09:44:12;99462.31;;;20.13;53.59
30463;BME280;17256;43.618;25.336;2023-02-26T09:47:24;99472.78;;;20.26;53.50
30463;BME280;17256;43.618;25.336;2023-02-26T09:53:27;99232.22;;;18.95;52.01
30463;BME280;17256;43.618;25.336;2023-02-26T09:56:16;99269.06;;;19.21;51.26
30463;BME280;17256;43.618;25.336;2023-02-26T09:59:08;99347.94;;;19.89;52.08
30463;BME280;17256;43.618;25.336;2023-02-26T10:02:15;99470.66;;;20.81;51.33
30463;BME280;17256;43.618;25.336;2023-02-26T10:11:42;99460.50;;;20.67;50.40
30463;BME280;17256;43.618;25.336;2023-02-26T10:14:42;99456.88;;;20.66;50.52
30463;BME280;17256;43.618;25.336;2023-02-26T10:19:58;99140.34;;;18.61;50.67
30463;BME280;17256;43.618;25.336;2023-02-26T10:22:43;99467.13;;;20.71;50.23
30463;BME280;17256;43.618;25.336;2023-02-26T10:29:34;99459.34;;;20.68;49.76
30463;BME280;17256;43.618;25.336;2023-02-26T10:50:39;99423.47;;;21.57;48.67
30463;BME280;17256;43.618;25.336;2023-02-26T10:53:11;99241.63;;;20.30;48.49
30463;BME280;17256;43.618;25.336;2023-02-26T10:55:42;99134.03;;;19.57;48.01
30463;BME280;17256;43.618;25.336;2023-02-26T10:58:22;99351.91;;;21.18;48.01
30463;BME280;17256;43.618;25.336;2023-02-26T11:00:53;99136.81;;;19.57;48.04
30463;BME280;17256;43.618;25.336;2023-02-26T11:03:37;99354.94;;;20.98;47.65
30463;BME280;17256;43.618;25.336;2023-02-26T11:06:35;99191.53;;;20.01;47.66
30463;BME280;17256;43.618;25.336;2023-02-26T11:09:35;99444.84;;;21.66;47.21
30463;BME280;17256;43.618;25.336;2023-02-26T11:12:25;99252.97;;;20.86;46.90
30463;BME280;17256;43.618;25.336;2023-02-26T11:15:11;99356.94;;;21.40;46.73
30463;BME280;17256;43.618;25.336;2023-02-26T11:18:20;99145.72;;;20.12;45.91
30463;BME280;17256;43.618;25.336;2023-02-26T11:20:57;99339.81;;;21.46;45.74
30463;BME280;17256;43.618;25.336;2023-02-26T11:23:30;99108.94;;;20.29;45.76
30463;BME280;17256;43.618;25.336;2023-02-26T11:26:35;99315.09;;;21.54;44.94
30463;BME280;17256;43.618;25.336;2023-02-26T11:34:24;99452.09;;;22.24;45.42
30463;BME280;17256;43.618;25.336;2023-02-26T11:37:45;99139.41;;;20.02;46.12
30463;BME280;17256;43.618;25.336;2023-02-26T11:40:34;99450.53;;;22.18;45.70
30463;BME280;17256;43.618;25.336;2023-02-26T11:47:01;99313.53;;;21.47;46.35
30463;BME280;17256;43.618;25.336;2023-02-26T11:49:41;99272.34;;;20.97;46.17
30463;BME280;17256;43.618;25.336;2023-02-26T11:52:42;99240.34;;;20.70;46.11
30463;BME280;17256;43.618;25.336;2023-02-26T11:56:08;99247.16;;;20.83;46.49
30463;BME280;17256;43.618;25.336;2023-02-26T12:05:37;99118.59;;;20.42;46.07
30463;BME280;17256;43.618;25.336;2023-02-26T12:39:31;99406.75;;;21.33;50.31
30463;BME280;17256;43.618;25.336;2023-02-26T12:42:23;99097.59;;;19.25;50.61
30463;BME280;17256;43.618;25.336;2023-02-26T12:54:29;99426.44;;;20.94;50.95
30463;BME280;17256;43.618;25.336;2023-02-26T12:57:57;99439.78;;;20.73;51.55
30463;BME280;17256;43.618;25.336;2023-02-26T13:26:21;99422.91;;;20.59;51.67
30463;BME280;17256;43.618;25.336;2023-02-26T14:44:00;99186.09;;;18.29;53.21
30463;BME280;17256;43.618;25.336;2023-02-26T14:46:35;99216.19;;;18.12;52.96
30463;BME280;17256;43.618;25.336;2023-02-26T14:49:03;99341.78;;;19.04;53.22
30463;BME280;17256;43.618;25.336;2023-02-26T14:55:49;99451.50;;;19.47;53.59
30463;BME280;17256;43.618;25.336;2023-02-26T15:04:31;99242.06;;;17.87;53.83
30463;BME280;17256;43.618;25.336;2023-02-26T15:16:26;99230.66;;;17.48;54.23
30463;BME280;17256;43.618;25.336;2023-02-26T15:24:53;99442.84;;;18.59;54.32
30463;BME280;17256;43.618;25.336;2023-02-26T15:27:24;99272.81;;;17.35;54.54
30463;BME280;17256;43.618;25.336;2023-02-26T15:30:15;99281.19;;;17.50;54.36
30463;BME280;17256;43.618;25.336;2023-02-26T15:33:09;99148.72;;;16.49;54.53
30463;BME280;17256;43.618;25.336;2023-02-26T15:35:54;99367.84;;;17.82;54.61
30463;BME280;17256;43.618;25.336;2023-02-26T15:38:38;99514.56;;;18.57;55.19
30463;BME280;17256;43.618;25.336;2023-02-26T15:41:11;99515.13;;;18.54;55.27
30463;BME280;17256;43.618;25.336;2023-02-26T15:43:45;99139.75;;;16.11;55.11
30463;BME280;17256;43.618;25.336;2023-02-26T15:46:41;99123.50;;;15.78;55.10
30463;BME280;17256;43.618;25.336;2023-02-26T15:52:26;99443.09;;;17.81;55.54
30463;BME280;17256;43.618;25.336;2023-02-26T15:55:02;99380.13;;;17.09;55.82
30463;BME280;17256;43.618;25.336;2023-02-26T15:57:33;99179.81;;;15.98;55.76
30463;BME280;17256;43.618;25.336;2023-02-26T16:00:17;99124.59;;;15.72;55.80
30463;BME280;17256;43.618;25.336;2023-02-26T16:02:55;99540.91;;;18.03;56.50
30463;BME280;17256;43.618;25.336;2023-02-26T16:05:30;99226.00;;;15.88;56.46
30463;BME280;17256;43.618;25.336;2023-02-26T16:08:00;99193.81;;;15.77;56.50
30463;BME280;17256;43.618;25.336;2023-02-26T16:10:42;99190.22;;;15.81;56.49
30463;BME280;17256;43.618;25.336;2023-02-26T16:13:22;99149.03;;;15.43;56.81
30463;BME280;17256;43.618;25.336;2023-02-26T16:16:04;99423.66;;;16.98;56.85
30463;BME280;17256;43.618;25.336;2023-02-26T16:18:46;99295.16;;;16.20;56.96
30463;BME280;17256;43.618;25.336;2023-02-26T16:21:37;99317.88;;;16.22;56.86
30463;BME280;17256;43.618;25.336;2023-02-26T16:24:09;99507.63;;;17.36;57.10
30463;BME280;17256;43.618;25.336;2023-02-26T16:27:04;99155.94;;;15.08;57.10
30463;BME280;17256;43.618;25.336;2023-02-26T16:29:49;99577.16;;;17.66;57.05
30463;BME280;17256;43.618;25.336;2023-02-26T16:32:20;99453.56;;;16.91;56.94
30463;BME280;17256;43.618;25.336;2023-02-26T16:34:59;99330.75;;;16.06;56.77
30463;BME280;17256;43.618;25.336;2023-02-26T16:37:36;99346.13;;;16.24;56.61
30463;BME280;17256;43.618;25.336;2023-02-26T16:45:53;99303.47;;;15.83;56.57
30463;BME280;17256;43.618;25.336;2023-02-26T16:48:29;99416.28;;;16.35;57.19
30463;BME280;17256;43.618;25.336;2023-02-26T16:54:16;99383.28;;;15.91;57.49
30463;BME280;17256;43.618;25.336;2023-02-26T16:56:31;99490.44;;;16.59;57.68
30463;BME280;17256;43.618;25.336;2023-02-26T16:59:25;99431.13;;;16.18;58.02
30463;BME280;17256;43.618;25.336;2023-02-26T17:02:33;99335.84;;;15.55;57.89
30463;BME280;17256;43.618;25.336;2023-02-26T17:05:20;99474.81;;;16.43;57.79
30463;BME280;17256;43.618;25.336;2023-02-26T17:08:19;99536.66;;;16.81;57.97
30463;BME280;17256;43.618;25.336;2023-02-26T17:11:37;99563.97;;;16.99;58.36
30463;BME280;17256;43.618;25.336;2023-02-26T17:14:57;99377.44;;;15.60;58.12
30463;BME280;17256;43.618;25.336;2023-02-26T17:17:40;99651.94;;;17.36;58.50
30463;BME280;17256;43.618;25.336;2023-02-26T17:20:28;99454.25;;;16.02;58.67
30463;BME280;17256;43.618;25.336;2023-02-26T17:22:59;99667.91;;;17.23;58.85
30463;BME280;17256;43.618;25.336;2023-02-26T17:26:03;99600.50;;;16.86;59.23
30463;BME280;17256;43.618;25.336;2023-02-26T17:28:36;99490.94;;;16.14;59.27
30463;BME280;17256;43.618;25.336;2023-02-26T17:31:08;99456.63;;;15.88;59.14
30463;BME280;17256;43.618;25.336;2023-02-26T17:33:43;99495.56;;;16.09;59.57
30463;BME280;17256;43.618;25.336;2023-02-26T17:36:17;99410.31;;;15.57;59.66
30463;BME280;17256;43.618;25.336;2023-02-26T17:38:52;99276.94;;;14.74;59.29
30463;BME280;17256;43.618;25.336;2023-02-26T17:41:20;99535.91;;;16.26;60.05
30463;BME280;17256;43.618;25.336;2023-02-26T17:43:50;99669.97;;;17.06;59.88
30463;BME280;17256;43.618;25.336;2023-02-26T17:46:22;99536.22;;;16.30;60.06
30463;BME280;17256;43.618;25.336;2023-02-26T17:48:51;99646.47;;;16.82;60.21
30463;BME280;17256;43.618;25.336;2023-02-26T17:51:17;99528.66;;;16.20;60.15
30463;BME280;17256;43.618;25.336;2023-02-26T17:53:43;99374.78;;;15.22;60.53
30463;BME280;17256;43.618;25.336;2023-02-26T17:56:31;99669.63;;;16.98;60.52
30463;BME280;17256;43.618;25.336;2023-02-26T17:58:59;99342.81;;;14.82;60.48
30463;BME280;17256;43.618;25.336;2023-02-26T18:01:26;99661.81;;;16.89;60.67
30463;BME280;17256;43.618;25.336;2023-02-26T18:03:54;99276.22;;;14.40;61.05
30463;BME280;17256;43.618;25.336;2023-02-26T18:06:22;99504.13;;;15.80;60.85
30463;BME280;17256;43.618;25.336;2023-02-26T18:08:51;99469.97;;;15.48;61.11
30463;BME280;17256;43.618;25.336;2023-02-26T18:11:32;99324.56;;;14.59;61.49
30463;BME280;17256;43.618;25.336;2023-02-26T18:14:02;99681.06;;;16.74;61.66
30463;BME280;17256;43.618;25.336;2023-02-26T18:16:40;99532.13;;;15.84;61.92
30463;BME280;17256;43.618;25.336;2023-02-26T18:19:12;99422.03;;;15.15;61.95
30463;BME280;17256;43.618;25.336;2023-02-26T18:21:40;99623.66;;;16.21;62.42
30463;BME280;17256;43.618;25.336;2023-02-26T18:24:09;99458.59;;;15.22;62.46
30463;BME280;17256;43.618;25.336;2023-02-26T18:26:35;99690.50;;;16.51;62.93
30463;BME280;17256;43.618;25.336;2023-02-26T18:29:02;99349.22;;;14.44;62.95
30463;BME280;17256;43.618;25.336;2023-02-26T18:31:33;99472.41;;;15.00;63.08
30463;BME280;17256;43.618;25.336;2023-02-26T18:33:59;99679.63;;;16.45;63.43
30463;BME280;17256;43.618;25.336;2023-02-26T18:36:35;99607.78;;;15.89;63.82
30463;BME280;17256;43.618;25.336;2023-02-26T18:39:10;99623.56;;;15.89;64.07
30463;BME280;17256;43.618;25.336;2023-02-26T18:41:40;99216.13;;;13.48;64.17
30463;BME280;17256;43.618;25.336;2023-02-26T18:44:08;99369.66;;;14.43;63.94
30463;BME280;17256;43.618;25.336;2023-02-26T18:46:38;99423.66;;;14.72;64.12